Terminal Aerodrome Forecast
Issued by NWS

Current Version | Previous Version | Graphics & Text | Print | Product List | Glossary On
Versions: 1 2 3 4 5 6 7 8 9 10 11 12 13 14 15
911
FTUS41 KPBZ 231120
TAFMGW
TAF
KMGW 231120Z 2312/2412 12008KT P6SM SCT250
     FM231500 13013G21KT P6SM BKN250
     FM240300 13011KT P6SM VCSH OVC060
     FM241000 12011G24KT P6SM -RA OVC040=

USA.gov is the U.S. government's official web portal to all federal, state and local government web resources and services.